Osceola, Washington
Current Conditions -  °F | °C
As of 3:45 PM on Saturday 20 Dec 2014 (Local Time) from KRNT Reporting Station
Light Rain Light Rain  
Wind Chill: 44°   Ceiling: 2700
Heat Index: 48°   Visibility: 7mi
Dew Point: 47°   Wind: 8mph
Humidity: 96%   Direction: 140°SE
Pressure: 29.48"   Gusts: NA
Location:  47.1782°N, 121.641°W
Report Text: KRNT 202345Z 14007KT 7SM -RA FEW023 OVC027 09/08 A2948 RMK AO2 P0002 T00890083 $
Loading
Personal Weather Stations






























Interactive Weather Map New forecast layout! Learn more

10-Day Weather Forecast

Advertisements
Track Severe Weather on mobile